Airfield :
LOGIN :

Register | Disclaimer

   EN    FR    IT 

 










Legend :    VFR   Marginal VFR   IFR   Intensive IFR   Very Intensive IFR
Visi :
Ceiling :
>= 8 km
>= 3000ft
5 to 8 km
1000 to 3000 ft
1500m to 5 km
500 to 1000 ft
800 to 1500m
200 to 500 ft
< 800m
< 200 ft
Symbols :   Thunderstorms  Fog  Heavy snow  Heavy precipitations  Wind > 20 kt
SIGMETs :     Misc.  Thunderstorms  Icing  Turbulence  Mountain Waves  Volcanic Ashes







- Airport Elevation : 464 ft
- IATA code : EVX
- Download approach charts


LFOE - Evreux

CURRENT METAR :
  • 220600Z AUTO 22007KT 7000 -RA OVC005 12/11 Q1010

EXPIRED METARs :
  • 220530Z AUTO 24007KT 4400 -RA BR BKN004 BKN009 OVC014 12/11 Q1010
  • 220500Z AUTO 25006KT 4400 -RA BR BKN004/// BKN009/// OVC014/// ///TCU 12/11 Q1011
  • 220430Z AUTO 24008KT 210V270 7000 -RA BKN005/// OVC033/// ///CB 12/11 Q1011
  • 220400Z AUTO 25010KT 4200 RA BR SCT007/// BKN014/// BKN022/// ///TCU 12/11 Q1011
  • 220330Z AUTO 25010KT 9999 -DZ BKN008 BKN015 OVC078 12/11 Q1011

TAF AMD TAF LFOE
Valid from the 22 at 06:00 until the 23 at 03:00 UTC


220604Z 2206/2303 25012KT 7000 OVC010
TEMPO 2206/2212 3000 RADZ OVC005
BECMG 2208/2210 29020G35KT
BECMG 2212/2214 NSW BKN020
BECMG 2217/2219 26010KT
No reported NOTAMs for that airfield.



MET'MAP, your aeronautical weather chart ! - Copyright ORBIFLY December 2007 - Disclaimer

ORBIFLY MET'MAP TEAM :

Programming & Development : Alexandra Zaïnal
Concept & Development : Baudouin d'Aumeries
Co-Development & Prog : Marc-Olivier Méhu
Technical & hardware support : Manuel Goepfert

Contact : metmap@orbifly.com




SOURCES & CREDITS :

   NOAA